sensor_id;sensor_type;location;lat;lon;timestamp;pressure;altitude;pressure_sealevel;temperature;humidity
63954;BME280;50128;52.094;5.232;2022-09-12T00:00:39;101659.0;;;14.24;95.62
63954;BME280;50128;52.094;5.232;2022-09-12T00:02:15;101655.0;;;14.26;95.56
63954;BME280;50128;52.094;5.232;2022-09-12T00:03:53;101658.0;;;14.3;95.79
63954;BME280;50128;52.094;5.232;2022-09-12T00:05:32;101658.0;;;14.19;95.67
63954;BME280;50128;52.094;5.232;2022-09-12T00:08:46;101661.0;;;14.19;95.84
63954;BME280;50128;52.094;5.232;2022-09-12T00:10:23;101657.0;;;14.17;95.88
63954;BME280;50128;52.094;5.232;2022-09-12T00:12:01;101653.0;;;14.18;95.67
63954;BME280;50128;52.094;5.232;2022-09-12T00:15:17;101653.0;;;14.14;95.29
63954;BME280;50128;52.094;5.232;2022-09-12T00:16:56;101653.0;;;14.07;95.78
63954;BME280;50128;52.094;5.232;2022-09-12T00:18:33;101648.0;;;14.1;94.88
63954;BME280;50128;52.094;5.232;2022-09-12T00:21:46;101646.0;;;14.1;95.54
63954;BME280;50128;52.094;5.232;2022-09-12T00:23:23;101649.0;;;14.06;96.46
63954;BME280;50128;52.094;5.232;2022-09-12T00:25:00;101647.0;;;14.02;96.09
63954;BME280;50128;52.094;5.232;2022-09-12T00:26:37;101645.0;;;13.99;96.27
63954;BME280;50128;52.094;5.232;2022-09-12T00:29:52;101647.0;;;13.94;96.18
63954;BME280;50128;52.094;5.232;2022-09-12T00:31:29;101645.0;;;13.96;96.13
63954;BME280;50128;52.094;5.232;2022-09-12T00:33:07;101640.0;;;13.89;95.91
63954;BME280;50128;52.094;5.232;2022-09-12T00:36:23;101641.0;;;13.9;95.55
63954;BME280;50128;52.094;5.232;2022-09-12T00:38:00;101638.0;;;13.88;95.56
63954;BME280;50128;52.094;5.232;2022-09-12T00:39:36;101636.0;;;13.86;95.9
63954;BME280;50128;52.094;5.232;2022-09-12T00:41:16;101631.0;;;13.85;95.66
63954;BME280;50128;52.094;5.232;2022-09-12T00:44:49;101633.0;;;13.83;95.89
63954;BME280;50128;52.094;5.232;2022-09-12T00:46:31;101631.0;;;13.81;95.31
63954;BME280;50128;52.094;5.232;2022-09-12T00:48:21;101630.0;;;13.81;95.28
63954;BME280;50128;52.094;5.232;2022-09-12T00:50:04;101631.0;;;13.75;96.51
63954;BME280;50128;52.094;5.232;2022-09-12T00:51:47;101630.0;;;13.73;96.2
63954;BME280;50128;52.094;5.232;2022-09-12T00:55:08;101628.0;;;13.76;96.76
63954;BME280;50128;52.094;5.232;2022-09-12T00:56:47;101630.0;;;13.74;96.7
63954;BME280;50128;52.094;5.232;2022-09-12T00:58:31;101630.0;;;13.7;96.4
63954;BME280;50128;52.094;5.232;2022-09-12T01:00:17;101628.0;;;13.66;95.98
63954;BME280;50128;52.094;5.232;2022-09-12T01:03:32;101628.0;;;13.69;96.33
63954;BME280;50128;52.094;5.232;2022-09-12T01:05:10;101627.0;;;13.66;96.31
63954;BME280;50128;52.094;5.232;2022-09-12T01:06:49;101621.0;;;13.69;96.0
63954;BME280;50128;52.094;5.232;2022-09-12T01:08:27;101625.0;;;13.65;95.59
63954;BME280;50128;52.094;5.232;2022-09-12T01:11:47;101622.0;;;13.64;95.81
63954;BME280;50128;52.094;5.232;2022-09-12T01:13:24;101618.0;;;13.63;96.18
63954;BME280;50128;52.094;5.232;2022-09-12T01:15:02;101614.0;;;13.62;96.14
63954;BME280;50128;52.094;5.232;2022-09-12T01:16:39;101617.0;;;13.58;96.32
63954;BME280;50128;52.094;5.232;2022-09-12T01:20:22;101615.0;;;13.57;96.08
63954;BME280;50128;52.094;5.232;2022-09-12T01:22:45;101613.0;;;13.58;95.86
63954;BME280;50128;52.094;5.232;2022-09-12T01:24:41;101608.0;;;13.53;96.28
63954;BME280;50128;52.094;5.232;2022-09-12T01:26:47;101607.0;;;13.54;96.29
63954;BME280;50128;52.094;5.232;2022-09-12T01:29:38;101601.0;;;13.5;96.2
63954;BME280;50128;52.094;5.232;2022-09-12T01:34:11;101599.0;;;13.49;96.17
63954;BME280;50128;52.094;5.232;2022-09-12T01:36:03;101594.0;;;13.47;96.29
63954;BME280;50128;52.094;5.232;2022-09-12T01:37:52;101594.0;;;13.48;96.6
63954;BME280;50128;52.094;5.232;2022-09-12T01:41:23;101592.0;;;13.47;96.27
63954;BME280;50128;52.094;5.232;2022-09-12T01:43:12;101593.0;;;13.42;96.25
63954;BME280;50128;52.094;5.232;2022-09-12T01:44:59;101588.0;;;13.4;96.09
63954;BME280;50128;52.094;5.232;2022-09-12T01:46:46;101588.0;;;13.43;95.5
63954;BME280;50128;52.094;5.232;2022-09-12T01:48:29;101588.0;;;13.41;96.38
63954;BME280;50128;52.094;5.232;2022-09-12T01:50:12;101588.0;;;13.4;96.75
63954;BME280;50128;52.094;5.232;2022-09-12T01:53:40;101590.0;;;13.39;96.9
63954;BME280;50128;52.094;5.232;2022-09-12T01:55:22;101584.0;;;13.36;96.07
63954;BME280;50128;52.094;5.232;2022-09-12T01:57:08;101583.0;;;13.39;95.81
63954;BME280;50128;52.094;5.232;2022-09-12T01:58:51;101574.0;;;13.4;96.14
63954;BME280;50128;52.094;5.232;2022-09-12T02:02:12;101571.0;;;13.39;96.53
63954;BME280;50128;52.094;5.232;2022-09-12T02:03:57;101573.0;;;13.42;96.32
63954;BME280;50128;52.094;5.232;2022-09-12T02:05:37;101570.0;;;13.41;96.43
63954;BME280;50128;52.094;5.232;2022-09-12T02:07:19;101570.0;;;13.4;97.18
63954;BME280;50128;52.094;5.232;2022-09-12T02:09:02;101569.0;;;13.41;96.9
63954;BME280;50128;52.094;5.232;2022-09-12T02:12:38;101569.0;;;13.43;96.82
63954;BME280;50128;52.094;5.232;2022-09-12T02:14:20;101569.0;;;13.38;96.73
63954;BME280;50128;52.094;5.232;2022-09-12T02:16:03;101564.0;;;13.39;97.0
63954;BME280;50128;52.094;5.232;2022-09-12T02:17:48;101563.0;;;13.36;96.75
63954;BME280;50128;52.094;5.232;2022-09-12T02:19:29;101558.0;;;13.43;96.28
63954;BME280;50128;52.094;5.232;2022-09-12T02:22:46;101559.0;;;13.33;96.7
63954;BME280;50128;52.094;5.232;2022-09-12T02:24:28;101555.0;;;13.33;97.08
63954;BME280;50128;52.094;5.232;2022-09-12T02:26:10;101556.0;;;13.33;96.7
63954;BME280;50128;52.094;5.232;2022-09-12T02:27:57;101562.0;;;13.3;96.72
63954;BME280;50128;52.094;5.232;2022-09-12T02:31:20;101563.0;;;13.29;97.13
63954;BME280;50128;52.094;5.232;2022-09-12T02:33:00;101562.0;;;13.25;96.93
63954;BME280;50128;52.094;5.232;2022-09-12T02:34:47;101560.0;;;13.26;97.17
63954;BME280;50128;52.094;5.232;2022-09-12T02:36:33;101553.0;;;13.26;96.89
63954;BME280;50128;52.094;5.232;2022-09-12T02:40:00;101553.0;;;13.25;97.14
63954;BME280;50128;52.094;5.232;2022-09-12T02:41:37;101552.0;;;13.25;96.52
63954;BME280;50128;52.094;5.232;2022-09-12T02:43:14;101552.0;;;13.24;96.48
63954;BME280;50128;52.094;5.232;2022-09-12T02:44:53;101548.0;;;13.21;97.37
63954;BME280;50128;52.094;5.232;2022-09-12T02:48:20;101542.0;;;13.21;96.5
63954;BME280;50128;52.094;5.232;2022-09-12T02:50:01;101539.0;;;13.17;96.9
63954;BME280;50128;52.094;5.232;2022-09-12T02:51:37;101539.0;;;13.16;97.21
63954;BME280;50128;52.094;5.232;2022-09-12T02:53:15;101537.0;;;13.19;96.99
63954;BME280;50128;52.094;5.232;2022-09-12T02:56:33;101539.0;;;13.21;96.86
63954;BME280;50128;52.094;5.232;2022-09-12T02:58:13;101539.0;;;13.2;96.99
63954;BME280;50128;52.094;5.232;2022-09-12T02:59:55;101536.0;;;13.22;97.05
63954;BME280;50128;52.094;5.232;2022-09-12T03:01:46;101537.0;;;13.21;96.98
63954;BME280;50128;52.094;5.232;2022-09-12T03:03:42;101540.0;;;13.21;97.47
63954;BME280;50128;52.094;5.232;2022-09-12T03:05:30;101537.0;;;13.24;97.42
63954;BME280;50128;52.094;5.232;2022-09-12T03:08:57;101531.0;;;13.27;97.41
63954;BME280;50128;52.094;5.232;2022-09-12T03:10:46;101533.0;;;13.25;97.26
63954;BME280;50128;52.094;5.232;2022-09-12T03:12:41;101528.0;;;13.25;97.73
63954;BME280;50128;52.094;5.232;2022-09-12T03:14:31;101528.0;;;13.26;97.24
63954;BME280;50128;52.094;5.232;2022-09-12T03:16:25;101523.0;;;13.28;96.71
63954;BME280;50128;52.094;5.232;2022-09-12T03:18:16;101526.0;;;13.22;96.96
63954;BME280;50128;52.094;5.232;2022-09-12T03:20:09;101528.0;;;13.21;97.2
63954;BME280;50128;52.094;5.232;2022-09-12T03:23:43;101526.0;;;13.17;97.62
63954;BME280;50128;52.094;5.232;2022-09-12T03:25:29;101525.0;;;13.18;97.06
63954;BME280;50128;52.094;5.232;2022-09-12T03:27:11;101525.0;;;13.14;96.58
63954;BME280;50128;52.094;5.232;2022-09-12T03:28:51;101524.0;;;13.17;96.76
63954;BME280;50128;52.094;5.232;2022-09-12T03:32:14;101521.0;;;13.16;96.95
63954;BME280;50128;52.094;5.232;2022-09-12T03:33:51;101519.0;;;13.15;96.79
63954;BME280;50128;52.094;5.232;2022-09-12T03:35:29;101517.0;;;13.12;97.41
63954;BME280;50128;52.094;5.232;2022-09-12T03:37:05;101517.0;;;13.11;97.0
63954;BME280;50128;52.094;5.232;2022-09-12T03:40:18;101513.0;;;13.06;97.07
63954;BME280;50128;52.094;5.232;2022-09-12T03:41:55;101511.0;;;13.09;96.61
63954;BME280;50128;52.094;5.232;2022-09-12T03:43:32;101508.0;;;13.08;96.89
63954;BME280;50128;52.094;5.232;2022-09-12T03:46:46;101506.0;;;13.08;96.76
63954;BME280;50128;52.094;5.232;2022-09-12T03:48:22;101505.0;;;13.11;97.31
63954;BME280;50128;52.094;5.232;2022-09-12T03:49:58;101503.0;;;13.11;97.53
63954;BME280;50128;52.094;5.232;2022-09-12T03:51:35;101502.0;;;13.08;97.34
63954;BME280;50128;52.094;5.232;2022-09-12T03:54:47;101501.0;;;13.08;96.85
63954;BME280;50128;52.094;5.232;2022-09-12T03:56:24;101502.0;;;13.12;97.21
63954;BME280;50128;52.094;5.232;2022-09-12T03:58:00;101499.0;;;13.13;97.75
63954;BME280;50128;52.094;5.232;2022-09-12T04:01:14;101503.0;;;13.1;97.59
63954;BME280;50128;52.094;5.232;2022-09-12T04:02:53;101499.0;;;13.1;97.71
63954;BME280;50128;52.094;5.232;2022-09-12T04:04:30;101494.0;;;13.1;97.75
63954;BME280;50128;52.094;5.232;2022-09-12T04:06:09;101497.0;;;13.1;97.75
63954;BME280;50128;52.094;5.232;2022-09-12T04:09:22;101495.0;;;13.1;97.76
63954;BME280;50128;52.094;5.232;2022-09-12T04:11:02;101492.0;;;13.15;97.8
63954;BME280;50128;52.094;5.232;2022-09-12T04:12:38;101493.0;;;13.18;97.61
63954;BME280;50128;52.094;5.232;2022-09-12T04:15:55;101491.0;;;13.16;98.32
63954;BME280;50128;52.094;5.232;2022-09-12T04:17:35;101497.0;;;13.21;98.13
63954;BME280;50128;52.094;5.232;2022-09-12T04:19:11;101498.0;;;13.24;97.99
63954;BME280;50128;52.094;5.232;2022-09-12T04:20:47;101495.0;;;13.22;98.22
63954;BME280;50128;52.094;5.232;2022-09-12T04:24:00;101495.0;;;13.28;97.48
63954;BME280;50128;52.094;5.232;2022-09-12T04:25:35;101494.0;;;13.27;97.8
63954;BME280;50128;52.094;5.232;2022-09-12T04:27:12;101493.0;;;13.26;97.73
63954;BME280;50128;52.094;5.232;2022-09-12T04:30:31;101496.0;;;13.25;97.54
63954;BME280;50128;52.094;5.232;2022-09-12T04:32:08;101499.0;;;13.26;97.99
63954;BME280;50128;52.094;5.232;2022-09-12T04:33:45;101495.0;;;13.34;97.6
63954;BME280;50128;52.094;5.232;2022-09-12T04:36:57;101493.0;;;13.32;97.45
63954;BME280;50128;52.094;5.232;2022-09-12T04:38:34;101493.0;;;13.36;97.65
63954;BME280;50128;52.094;5.232;2022-09-12T04:40:12;101493.0;;;13.39;98.27
63954;BME280;50128;52.094;5.232;2022-09-12T04:41:48;101493.0;;;13.43;98.03
63954;BME280;50128;52.094;5.232;2022-09-12T04:45:00;101499.0;;;13.45;98.06
63954;BME280;50128;52.094;5.232;2022-09-12T04:46:40;101488.0;;;13.48;97.86
63954;BME280;50128;52.094;5.232;2022-09-12T04:48:16;101491.0;;;13.5;98.04
63954;BME280;50128;52.094;5.232;2022-09-12T04:51:31;101493.0;;;13.48;98.2
63954;BME280;50128;52.094;5.232;2022-09-12T04:53:08;101492.0;;;13.49;98.4
63954;BME280;50128;52.094;5.232;2022-09-12T04:54:44;101490.0;;;13.48;98.32
63954;BME280;50128;52.094;5.232;2022-09-12T04:56:21;101487.0;;;13.5;98.39
63954;BME280;50128;52.094;5.232;2022-09-12T04:59:33;101486.0;;;13.54;98.01
63954;BME280;50128;52.094;5.232;2022-09-12T05:01:12;101489.0;;;13.55;97.73
63954;BME280;50128;52.094;5.232;2022-09-12T05:02:49;101489.0;;;13.58;97.6
63954;BME280;50128;52.094;5.232;2022-09-12T05:06:02;101485.0;;;13.57;97.82
63954;BME280;50128;52.094;5.232;2022-09-12T05:07:38;101477.0;;;13.62;97.73
63954;BME280;50128;52.094;5.232;2022-09-12T05:09:15;101478.0;;;13.55;98.47
63954;BME280;50128;52.094;5.232;2022-09-12T05:12:30;101482.0;;;13.66;98.12
63954;BME280;50128;52.094;5.232;2022-09-12T05:14:07;101481.0;;;13.69;97.81
63954;BME280;50128;52.094;5.232;2022-09-12T05:15:53;101484.0;;;13.81;97.17
63954;BME280;50128;52.094;5.232;2022-09-12T05:17:29;101487.0;;;13.85;96.7
63954;BME280;50128;52.094;5.232;2022-09-12T05:20:42;101488.0;;;13.81;97.39
63954;BME280;50128;52.094;5.232;2022-09-12T05:22:18;101487.0;;;13.82;97.53
63954;BME280;50128;52.094;5.232;2022-09-12T05:23:56;101482.0;;;13.77;97.44
63954;BME280;50128;52.094;5.232;2022-09-12T05:27:09;101480.0;;;13.72;97.58
63954;BME280;50128;52.094;5.232;2022-09-12T05:28:46;101483.0;;;13.68;98.38
63954;BME280;50128;52.094;5.232;2022-09-12T05:30:22;101487.0;;;13.66;97.87
63954;BME280;50128;52.094;5.232;2022-09-12T05:31:58;101485.0;;;13.66;97.99
63954;BME280;50128;52.094;5.232;2022-09-12T05:35:13;101484.0;;;13.64;98.08
63954;BME280;50128;52.094;5.232;2022-09-12T05:36:49;101483.0;;;13.7;97.85
63954;BME280;50128;52.094;5.232;2022-09-12T05:38:25;101484.0;;;13.71;98.0
63954;BME280;50128;52.094;5.232;2022-09-12T05:41:43;101483.0;;;13.71;98.33
63954;BME280;50128;52.094;5.232;2022-09-12T05:43:19;101478.0;;;13.73;98.25
63954;BME280;50128;52.094;5.232;2022-09-12T05:44:56;101473.0;;;13.75;98.44
63954;BME280;50128;52.094;5.232;2022-09-12T05:46:36;101475.0;;;13.74;98.25
63954;BME280;50128;52.094;5.232;2022-09-12T05:49:50;101472.0;;;13.72;98.34
63954;BME280;50128;52.094;5.232;2022-09-12T05:51:32;101475.0;;;13.71;98.42
63954;BME280;50128;52.094;5.232;2022-09-12T05:53:09;101475.0;;;13.7;98.28
63954;BME280;50128;52.094;5.232;2022-09-12T05:56:25;101474.0;;;13.69;98.14
63954;BME280;50128;52.094;5.232;2022-09-12T05:58:03;101473.0;;;13.68;98.3
63954;BME280;50128;52.094;5.232;2022-09-12T05:59:40;101473.0;;;13.66;98.25
63954;BME280;50128;52.094;5.232;2022-09-12T06:01:17;101472.0;;;13.69;98.02
63954;BME280;50128;52.094;5.232;2022-09-12T06:04:31;101470.0;;;13.71;98.28
63954;BME280;50128;52.094;5.232;2022-09-12T06:06:07;101470.0;;;13.69;98.36
63954;BME280;50128;52.094;5.232;2022-09-12T06:07:45;101473.0;;;13.74;97.93
63954;BME280;50128;52.094;5.232;2022-09-12T06:10:59;101474.0;;;13.9;98.0
63954;BME280;50128;52.094;5.232;2022-09-12T06:12:36;101473.0;;;14.1;96.96
63954;BME280;50128;52.094;5.232;2022-09-12T06:14:14;101474.0;;;14.0;97.45
63954;BME280;50128;52.094;5.232;2022-09-12T06:15:51;101474.0;;;14.26;96.62
63954;BME280;50128;52.094;5.232;2022-09-12T06:19:05;101483.0;;;14.18;97.04
63954;BME280;50128;52.094;5.232;2022-09-12T06:20:43;101485.0;;;14.07;97.19
63954;BME280;50128;52.094;5.232;2022-09-12T06:22:20;101482.0;;;14.14;97.26
63954;BME280;50128;52.094;5.232;2022-09-12T06:25:34;101482.0;;;14.19;97.23
63954;BME280;50128;52.094;5.232;2022-09-12T06:27:10;101482.0;;;14.18;97.43
63954;BME280;50128;52.094;5.232;2022-09-12T06:28:48;101485.0;;;14.18;97.67
63954;BME280;50128;52.094;5.232;2022-09-12T06:32:03;101488.0;;;14.49;96.6
63954;BME280;50128;52.094;5.232;2022-09-12T06:33:40;101488.0;;;14.63;96.17
63954;BME280;50128;52.094;5.232;2022-09-12T06:35:18;101482.0;;;14.57;96.77
63954;BME280;50128;52.094;5.232;2022-09-12T06:36:54;101473.0;;;14.76;96.11
63954;BME280;50128;52.094;5.232;2022-09-12T06:40:08;101469.0;;;14.77;96.43
63954;BME280;50128;52.094;5.232;2022-09-12T06:41:46;101465.0;;;15.05;95.39
63954;BME280;50128;52.094;5.232;2022-09-12T06:43:23;101466.0;;;15.03;95.49
63954;BME280;50128;52.094;5.232;2022-09-12T06:46:35;101469.0;;;15.16;94.93
63954;BME280;50128;52.094;5.232;2022-09-12T06:48:11;101467.0;;;15.37;93.82
63954;BME280;50128;52.094;5.232;2022-09-12T06:49:47;101464.0;;;15.51;93.19
63954;BME280;50128;52.094;5.232;2022-09-12T06:51:26;101464.0;;;15.51;93.44
63954;BME280;50128;52.094;5.232;2022-09-12T06:54:38;101465.0;;;15.53;93.2
63954;BME280;50128;52.094;5.232;2022-09-12T06:57:55;101459.0;;;15.82;91.88
63954;BME280;50128;52.094;5.232;2022-09-12T07:01:09;101458.0;;;15.99;91.17
63954;BME280;50128;52.094;5.232;2022-09-12T07:02:46;101460.0;;;15.98;91.4
63954;BME280;50128;52.094;5.232;2022-09-12T07:04:22;101465.0;;;16.23;89.76
63954;BME280;50128;52.094;5.232;2022-09-12T07:07:38;101466.0;;;16.25;90.19
63954;BME280;50128;52.094;5.232;2022-09-12T07:09:16;101462.0;;;16.4;89.4
63954;BME280;50128;52.094;5.232;2022-09-12T07:10:51;101466.0;;;16.36;89.74
63954;BME280;50128;52.094;5.232;2022-09-12T07:12:28;101464.0;;;16.38;89.56
63954;BME280;50128;52.094;5.232;2022-09-12T07:15:43;101460.0;;;16.46;89.54
63954;BME280;50128;52.094;5.232;2022-09-12T07:17:19;101467.0;;;16.68;87.81
63954;BME280;50128;52.094;5.232;2022-09-12T07:18:56;101465.0;;;16.79;86.79
63954;BME280;50128;52.094;5.232;2022-09-12T07:22:09;101467.0;;;16.91;86.71
63954;BME280;50128;52.094;5.232;2022-09-12T07:23:46;101467.0;;;16.88;87.03
63954;BME280;50128;52.094;5.232;2022-09-12T07:25:23;101470.0;;;16.84;87.59
63954;BME280;50128;52.094;5.232;2022-09-12T07:26:59;101470.0;;;16.93;86.71
63954;BME280;50128;52.094;5.232;2022-09-12T07:30:11;101469.0;;;16.98;87.1
63954;BME280;50128;52.094;5.232;2022-09-12T07:31:47;101467.0;;;17.07;86.17
63954;BME280;50128;52.094;5.232;2022-09-12T07:33:26;101467.0;;;17.22;84.97
63954;BME280;50128;52.094;5.232;2022-09-12T07:36:39;101462.0;;;17.36;84.73
63954;BME280;50128;52.094;5.232;2022-09-12T07:38:15;101469.0;;;17.18;84.09
63954;BME280;50128;52.094;5.232;2022-09-12T07:39:51;101461.0;;;17.43;83.78
63954;BME280;50128;52.094;5.232;2022-09-12T07:43:07;101462.0;;;17.59;83.61
63954;BME280;50128;52.094;5.232;2022-09-12T07:44:43;101468.0;;;17.7;82.76
63954;BME280;50128;52.094;5.232;2022-09-12T07:46:19;101465.0;;;17.66;81.41
63954;BME280;50128;52.094;5.232;2022-09-12T07:47:56;101466.0;;;17.82;81.75
63954;BME280;50128;52.094;5.232;2022-09-12T07:51:09;101466.0;;;17.86;82.04
63954;BME280;50128;52.094;5.232;2022-09-12T07:52:47;101467.0;;;17.96;81.52
63954;BME280;50128;52.094;5.232;2022-09-12T07:54:24;101470.0;;;17.88;81.08
63954;BME280;50128;52.094;5.232;2022-09-12T07:57:36;101471.0;;;17.91;82.49
63954;BME280;50128;52.094;5.232;2022-09-12T07:59:12;101474.0;;;18.0;81.81
63954;BME280;50128;52.094;5.232;2022-09-12T08:00:49;101478.0;;;18.04;81.39
63954;BME280;50128;52.094;5.232;2022-09-12T08:04:04;101476.0;;;18.12;81.8
63954;BME280;50128;52.094;5.232;2022-09-12T08:05:40;101471.0;;;18.25;80.91
63954;BME280;50128;52.094;5.232;2022-09-12T08:07:18;101472.0;;;18.18;81.86
63954;BME280;50128;52.094;5.232;2022-09-12T08:08:55;101470.0;;;18.27;81.52
63954;BME280;50128;52.094;5.232;2022-09-12T08:12:09;101467.0;;;18.34;81.03
63954;BME280;50128;52.094;5.232;2022-09-12T08:13:45;101470.0;;;18.53;80.55
63954;BME280;50128;52.094;5.232;2022-09-12T08:15:23;101468.0;;;18.61;80.61
63954;BME280;50128;52.094;5.232;2022-09-12T08:18:35;101474.0;;;18.59;80.88
63954;BME280;50128;52.094;5.232;2022-09-12T08:20:11;101474.0;;;18.7;80.28
63954;BME280;50128;52.094;5.232;2022-09-12T08:21:47;101472.0;;;18.78;79.36
63954;BME280;50128;52.094;5.232;2022-09-12T08:25:01;101470.0;;;18.91;79.27
63954;BME280;50128;52.094;5.232;2022-09-12T08:26:36;101472.0;;;18.95;79.36
63954;BME280;50128;52.094;5.232;2022-09-12T08:28:13;101471.0;;;19.0;80.3
63954;BME280;50128;52.094;5.232;2022-09-12T08:29:49;101472.0;;;19.09;79.19
63954;BME280;50128;52.094;5.232;2022-09-12T08:33:02;101471.0;;;19.2;78.14
63954;BME280;50128;52.094;5.232;2022-09-12T08:34:39;101473.0;;;19.36;78.41
63954;BME280;50128;52.094;5.232;2022-09-12T08:36:15;101474.0;;;19.47;77.03
63954;BME280;50128;52.094;5.232;2022-09-12T08:39:29;101471.0;;;19.61;76.63
63954;BME280;50128;52.094;5.232;2022-09-12T08:41:09;101472.0;;;19.72;75.87
63954;BME280;50128;52.094;5.232;2022-09-12T08:42:57;101471.0;;;19.77;75.02
63954;BME280;50128;52.094;5.232;2022-09-12T08:44:54;101473.0;;;19.75;74.55
63954;BME280;50128;52.094;5.232;2022-09-12T08:46:36;101472.0;;;19.87;74.17
63954;BME280;50128;52.094;5.232;2022-09-12T08:50:01;101472.0;;;19.89;74.03
63954;BME280;50128;52.094;5.232;2022-09-12T08:51:40;101471.0;;;19.91;75.27
63954;BME280;50128;52.094;5.232;2022-09-12T08:53:20;101472.0;;;19.91;74.61
63954;BME280;50128;52.094;5.232;2022-09-12T08:54:59;101464.0;;;20.09;74.92
63954;BME280;50128;52.094;5.232;2022-09-12T08:58:18;101468.0;;;20.25;74.38
63954;BME280;50128;52.094;5.232;2022-09-12T08:59:55;101461.0;;;20.32;73.56
63954;BME280;50128;52.094;5.232;2022-09-12T09:01:34;101463.0;;;20.41;71.91
63954;BME280;50128;52.094;5.232;2022-09-12T09:03:40;101459.0;;;20.41;71.78
63954;BME280;50128;52.094;5.232;2022-09-12T09:05:31;101460.0;;;20.36;71.86
63954;BME280;50128;52.094;5.232;2022-09-12T09:09:33;101461.0;;;20.47;72.17
63954;BME280;50128;52.094;5.232;2022-09-12T09:11:25;101463.0;;;20.53;71.86
63954;BME280;50128;52.094;5.232;2022-09-12T09:13:15;101462.0;;;20.51;72.47
63954;BME280;50128;52.094;5.232;2022-09-12T09:15:13;101461.0;;;20.48;71.77
63954;BME280;50128;52.094;5.232;2022-09-12T09:16:53;101463.0;;;20.57;72.66
63954;BME280;50128;52.094;5.232;2022-09-12T09:18:33;101461.0;;;20.54;72.61
63954;BME280;50128;52.094;5.232;2022-09-12T09:20:20;101462.0;;;20.65;72.55
63954;BME280;50128;52.094;5.232;2022-09-12T09:22:04;101453.0;;;20.74;72.64
63954;BME280;50128;52.094;5.232;2022-09-12T09:25:36;101456.0;;;20.85;72.28
63954;BME280;50128;52.094;5.232;2022-09-12T09:27:22;101456.0;;;20.81;72.88
63954;BME280;50128;52.094;5.232;2022-09-12T09:29:05;101455.0;;;20.83;72.84
63954;BME280;50128;52.094;5.232;2022-09-12T09:30:47;101451.0;;;20.75;73.44
63954;BME280;50128;52.094;5.232;2022-09-12T09:34:12;101453.0;;;20.93;73.41
63954;BME280;50128;52.094;5.232;2022-09-12T09:35:55;101455.0;;;21.09;72.12
63954;BME280;50128;52.094;5.232;2022-09-12T09:37:39;101448.0;;;21.08;72.24
63954;BME280;50128;52.094;5.232;2022-09-12T09:39:40;101455.0;;;21.14;71.8
63954;BME280;50128;52.094;5.232;2022-09-12T09:41:29;101451.0;;;21.03;71.25
63954;BME280;50128;52.094;5.232;2022-09-12T09:43:19;101451.0;;;20.97;71.06
63954;BME280;50128;52.094;5.232;2022-09-12T09:46:37;101449.0;;;21.21;71.05
63954;BME280;50128;52.094;5.232;2022-09-12T09:48:16;101445.0;;;21.3;71.58
63954;BME280;50128;52.094;5.232;2022-09-12T09:49:54;101441.0;;;21.29;70.31
63954;BME280;50128;52.094;5.232;2022-09-12T09:51:34;101441.0;;;21.4;70.41
63954;BME280;50128;52.094;5.232;2022-09-12T09:55:13;101442.0;;;21.57;70.19
63954;BME280;50128;52.094;5.232;2022-09-12T09:56:52;101440.0;;;21.51;68.69
63954;BME280;50128;52.094;5.232;2022-09-12T09:58:30;101436.0;;;21.56;69.52
63954;BME280;50128;52.094;5.232;2022-09-12T10:00:39;101433.0;;;21.64;68.44
63954;BME280;50128;52.094;5.232;2022-09-12T10:02:20;101427.0;;;21.7;69.0
63954;BME280;50128;52.094;5.232;2022-09-12T10:03:56;101421.0;;;21.69;68.22
63954;BME280;50128;52.094;5.232;2022-09-12T10:07:21;101420.0;;;21.75;68.84
63954;BME280;50128;52.094;5.232;2022-09-12T10:09:17;101416.0;;;21.86;67.36
63954;BME280;50128;52.094;5.232;2022-09-12T10:10:56;101419.0;;;21.83;65.87
63954;BME280;50128;52.094;5.232;2022-09-12T10:12:34;101416.0;;;21.85;66.58
63954;BME280;50128;52.094;5.232;2022-09-12T10:16:20;101414.0;;;21.85;66.73
63954;BME280;50128;52.094;5.232;2022-09-12T10:17:57;101408.0;;;21.91;67.31
63954;BME280;50128;52.094;5.232;2022-09-12T10:19:36;101407.0;;;21.99;64.61
63954;BME280;50128;52.094;5.232;2022-09-12T10:21:18;101405.0;;;22.05;64.23
63954;BME280;50128;52.094;5.232;2022-09-12T10:22:57;101405.0;;;22.09;64.91
63954;BME280;50128;52.094;5.232;2022-09-12T10:26:15;101405.0;;;22.18;64.8
63954;BME280;50128;52.094;5.232;2022-09-12T10:27:57;101398.0;;;22.29;65.27
63954;BME280;50128;52.094;5.232;2022-09-12T10:29:39;101399.0;;;22.38;65.83
63954;BME280;50128;52.094;5.232;2022-09-12T10:31:23;101396.0;;;22.39;63.92
63954;BME280;50128;52.094;5.232;2022-09-12T10:34:44;101397.0;;;22.47;63.66
63954;BME280;50128;52.094;5.232;2022-09-12T10:36:21;101394.0;;;22.51;62.82
63954;BME280;50128;52.094;5.232;2022-09-12T10:38:00;101390.0;;;22.61;61.5
63954;BME280;50128;52.094;5.232;2022-09-12T10:39:37;101383.0;;;22.68;63.78
63954;BME280;50128;52.094;5.232;2022-09-12T10:42:51;101381.0;;;22.7;63.21
63954;BME280;50128;52.094;5.232;2022-09-12T10:44:31;101377.0;;;22.89;62.15
63954;BME280;50128;52.094;5.232;2022-09-12T10:46:27;101372.0;;;22.79;61.0
63954;BME280;50128;52.094;5.232;2022-09-12T10:48:24;101371.0;;;22.72;61.6
63954;BME280;50128;52.094;5.232;2022-09-12T10:50:19;101369.0;;;22.64;62.22
63954;BME280;50128;52.094;5.232;2022-09-12T10:53:51;101371.0;;;22.61;62.24
63954;BME280;50128;52.094;5.232;2022-09-12T10:55:31;101364.0;;;22.69;62.12
63954;BME280;50128;52.094;5.232;2022-09-12T10:57:24;101361.0;;;22.63;61.1
63954;BME280;50128;52.094;5.232;2022-09-12T10:59:15;101359.0;;;22.76;61.24
63954;BME280;50128;52.094;5.232;2022-09-12T11:01:03;101361.0;;;22.95;60.58
63954;BME280;50128;52.094;5.232;2022-09-12T11:02:50;101357.0;;;23.09;60.46
63954;BME280;50128;52.094;5.232;2022-09-12T11:04:43;101364.0;;;23.16;60.03
63954;BME280;50128;52.094;5.232;2022-09-12T11:08:25;101369.0;;;23.33;59.84
63954;BME280;50128;52.094;5.232;2022-09-12T11:10:37;101364.0;;;23.25;57.24
63954;BME280;50128;52.094;5.232;2022-09-12T11:12:25;101360.0;;;23.33;57.82